Time;durP1;ratioP1;P1;durP2;ratioP2;P2;SDS_P1;SDS_P2;PMS_P1;PMS_P2;Temp;Humidity;BMP_temperature;BMP_pressure;BME280_temperature;BME280_humidity;BME280_pressure;Samples;Min_cycle;Max_cycle;Signal;HPM_P1;HPM_P2
2022/08/08 00:02:15;;;;;;;3.97;1.50;;;;;;;23.89;61.36;100571.66;5010681;28;20080;-62
2022/08/08 00:05:12;;;;;;;2.38;0.98;;;;;;;23.77;61.20;100584.13;5010472;28;20029;-64
2022/08/08 00:07:43;;;;;;;1.50;1.20;;;;;;;23.68;61.73;100577.50;4998951;28;20053;-61
2022/08/08 00:10:18;;;;;;;1.75;1.30;;;;;;;23.63;62.34;100574.75;5030477;28;20034;-62
2022/08/08 00:12:51;;;;;;;3.13;1.33;;;;;;;23.65;62.23;100583.28;5029922;28;20037;-61
2022/08/08 00:15:38;;;;;;;4.22;1.00;;;;;;;23.59;61.13;100584.22;5029165;28;20275;-62
2022/08/08 00:18:25;;;;;;;2.08;1.05;;;;;;;23.49;61.69;100585.53;5028460;28;20033;-62
2022/08/08 00:20:54;;;;;;;1.88;1.02;;;;;;;23.54;63.95;100581.41;5013362;28;20037;-62
2022/08/08 00:23:32;;;;;;;1.85;1.08;;;;;;;23.47;63.62;100579.63;5028995;28;20033;-62
2022/08/08 00:26:02;;;;;;;1.92;1.13;;;;;;;23.46;64.34;100585.97;5028426;28;20111;-62
2022/08/08 00:28:39;;;;;;;1.77;0.95;;;;;;;23.32;63.50;100581.06;5010497;28;20053;-60
2022/08/08 00:31:13;;;;;;;1.80;1.63;;;;;;;23.30;63.85;100583.13;5030075;28;20442;-59
2022/08/08 00:33:47;;;;;;;1.38;0.82;;;;;;;23.32;63.36;100581.88;5029385;28;20030;-61
2022/08/08 00:36:41;;;;;;;2.00;1.25;;;;;;;23.23;63.05;100580.56;4996118;28;20080;-61
2022/08/08 00:39:10;;;;;;;2.03;1.15;;;;;;;23.19;64.31;100582.03;4991696;28;20375;-62
2022/08/08 00:42:17;;;;;;;2.80;1.08;;;;;;;23.17;63.59;100574.28;5006793;28;20057;-63
2022/08/08 00:45:37;;;;;;;3.53;1.15;;;;;;;23.07;64.28;100575.88;5004989;28;20108;-62
2022/08/08 00:48:24;;;;;;;3.67;1.30;;;;;;;23.01;66.99;100568.81;4967863;28;20039;-61
2022/08/08 00:51:06;;;;;;;1.65;1.20;;;;;;;22.96;67.45;100569.47;4967962;28;20034;-62
2022/08/08 00:54:00;;;;;;;1.60;0.95;;;;;;;22.91;66.51;100571.16;4962615;28;20443;-61
2022/08/08 00:57:16;;;;;;;2.90;1.27;;;;;;;22.82;66.01;100570.66;4960176;28;20070;-63
2022/08/08 01:00:02;;;;;;;3.65;1.38;;;;;;;22.74;67.40;100574.38;4967891;28;20107;-63
2022/08/08 01:02:46;;;;;;;1.80;1.20;;;;;;;22.66;67.97;100572.03;4965561;28;20062;-62
2022/08/08 01:05:49;;;;;;;3.45;1.10;;;;;;;22.59;68.28;100571.31;4966363;28;20188;-62
2022/08/08 01:08:32;;;;;;;4.38;1.25;;;;;;;22.46;68.30;100571.44;4966669;28;20054;-61
2022/08/08 01:11:16;;;;;;;3.00;1.52;;;;;;;22.39;69.44;100571.50;4966548;28;20152;-62
2022/08/08 01:14:12;;;;;;;1.38;1.00;;;;;;;22.34;68.96;100570.53;4966520;28;20545;-61
2022/08/08 01:17:16;;;;;;;1.63;1.20;;;;;;;22.34;67.87;100575.84;4966504;28;20168;-61
2022/08/08 01:20:10;;;;;;;5.68;1.33;;;;;;;22.32;68.89;100564.63;4967263;28;20501;-63
2022/08/08 01:23:25;;;;;;;2.83;1.48;;;;;;;22.27;69.56;100561.81;5000866;28;20080;-63
2022/08/08 01:26:09;;;;;;;2.33;1.15;;;;;;;22.14;71.07;100568.88;4970935;28;20135;-64
2022/08/08 01:29:05;;;;;;;2.13;1.38;;;;;;;22.13;70.68;100569.91;4991486;28;20096;-60
2022/08/08 01:31:49;;;;;;;;;;;;;;;22.07;70.25;100562.81;5009683;28;20038;-60
2022/08/08 01:34:17;;;;;;;1.25;1.00;;;;;;;22.03;72.07;100558.97;5009180;28;19917;-63
2022/08/08 01:36:59;;;;;;;1.20;1.10;;;;;;;22.03;71.25;100563.47;5006899;28;20080;-63
2022/08/08 01:39:46;;;;;;;1.77;1.27;;;;;;;22.06;72.57;100563.03;5007600;28;20703;-63
2022/08/08 01:42:21;;;;;;;1.77;1.30;;;;;;;22.07;72.47;100567.31;5008882;28;20036;-61
2022/08/08 01:45:14;;;;;;;3.72;1.27;;;;;;;21.98;72.43;100558.78;5026194;28;20061;-63
2022/08/08 01:48:02;;;;;;;1.48;1.33;;;;;;;21.91;71.72;100568.63;5025028;28;20060;-61
2022/08/08 01:50:28;;;;;;;2.95;1.33;;;;;;;21.90;72.71;100567.00;5028445;28;20116;-61
2022/08/08 01:53:02;;;;;;;5.05;1.33;;;;;;;21.87;72.76;100567.44;5024187;28;20211;-61
2022/08/08 01:55:51;;;;;;;2.47;1.20;;;;;;;21.77;72.43;100572.41;5023844;28;20073;-63
2022/08/08 01:58:31;;;;;;;1.63;1.52;;;;;;;21.75;73.32;100569.16;5022395;28;20038;-63
2022/08/08 02:01:24;;;;;;;1.30;0.95;;;;;;;21.75;73.46;100569.16;5010993;28;20137;-63
2022/08/08 02:03:56;;;;;;;1.38;1.08;;;;;;;21.72;72.13;100574.91;5007289;28;20067;-63
2022/08/08 02:06:40;;;;;;;1.23;0.93;;;;;;;21.78;72.61;100574.84;5008943;28;20054;-61
2022/08/08 02:09:55;;;;;;;2.13;1.35;;;;;;;21.70;73.94;100577.78;5013045;28;20041;-64
2022/08/08 02:12:30;;;;;;;2.65;1.10;;;;;;;21.66;74.17;100570.47;4966264;28;20561;-63
2022/08/08 02:15:08;;;;;;;1.90;1.45;;;;;;;21.73;74.29;100571.22;4975860;28;20042;-63
2022/08/08 02:17:52;;;;;;;3.53;1.10;;;;;;;21.68;74.27;100579.81;4981957;28;20082;-62
2022/08/08 02:20:25;;;;;;;2.17;1.23;;;;;;;21.64;75.37;100570.69;4986140;28;20162;-61
2022/08/08 02:23:09;;;;;;;3.22;1.77;;;;;;;21.57;76.03;100571.75;4984136;28;20056;-63
2022/08/08 02:26:01;;;;;;;3.42;1.73;;;;;;;21.48;76.00;100579.94;4983896;28;20213;-64
2022/08/08 02:28:52;;;;;;;1.88;1.30;;;;;;;21.56;74.94;100578.06;4982130;28;20046;-61
2022/08/08 02:32:00;;;;;;;2.13;1.27;;;;;;;21.59;74.75;100575.81;4997220;28;20038;-65
2022/08/08 02:34:50;;;;;;;1.85;1.30;;;;;;;21.58;74.81;100583.97;4991497;28;20034;-65
2022/08/08 02:37:32;;;;;;;1.85;1.48;;;;;;;21.59;75.22;100580.28;4962596;28;20067;-63
2022/08/08 02:40:18;;;;;;;1.80;1.27;;;;;;;21.56;75.12;100578.06;4974499;28;20045;-63
2022/08/08 02:42:52;;;;;;;1.50;1.38;;;;;;;21.56;75.16;100580.72;4990067;28;20080;-62
2022/08/08 02:45:49;;;;;;;2.00;1.27;;;;;;;21.53;74.08;100587.25;5009023;28;20433;-64
2022/08/08 02:48:47;;;;;;;2.28;1.00;;;;;;;21.62;73.68;100579.88;5014973;28;20084;-64
2022/08/08 02:51:27;;;;;;;3.00;1.17;;;;;;;21.62;73.95;100593.13;5030417;28;20524;-64
2022/08/08 02:54:11;;;;;;;1.88;1.45;;;;;;;21.59;75.06;100591.72;5011506;28;20033;-62
2022/08/08 02:57:08;;;;;;;1.83;1.30;;;;;;;21.50;74.66;100588.50;5030267;28;20503;-64
2022/08/08 02:59:55;;;;;;;1.85;1.50;;;;;;;21.39;75.92;100593.66;5029143;28;20041;-62
2022/08/08 03:02:33;;;;;;;1.65;1.27;;;;;;;21.32;76.25;100585.72;5031614;28;20040;-64
2022/08/08 03:05:14;;;;;;;1.70;1.40;;;;;;;21.32;75.38;100591.03;5031528;28;20366;-65
2022/08/08 03:08:15;;;;;;;3.20;1.17;;;;;;;21.38;75.73;100584.88;5030117;28;20099;-62
2022/08/08 03:11:17;;;;;;;1.85;1.10;;;;;;;21.40;75.18;100579.38;5030316;28;20116;-61
2022/08/08 03:14:05;;;;;;;4.63;1.27;;;;;;;21.44;74.70;100578.75;5031050;28;20386;-64
2022/08/08 03:16:40;;;;;;;2.13;1.08;;;;;;;21.59;74.14;100582.94;5031271;28;20029;-65
2022/08/08 03:19:28;;;;;;;1.63;1.00;;;;;;;21.62;73.50;100585.16;5028521;28;20069;-65
2022/08/08 03:21:53;;;;;;;3.20;1.50;;;;;;;21.62;73.75;100582.50;5010635;28;20116;-61
2022/08/08 03:24:19;;;;;;;2.33;1.30;;;;;;;21.56;74.62;100586.03;5017980;28;20076;-63
2022/08/08 03:29:27;;;;;;;2.10;1.35;;;;;;;21.47;75.68;100599.53;4533851;23;20065;-72
2022/08/08 03:34:38;;;;;;;1.90;1.42;;;;;;;21.41;75.32;100605.66;5031134;28;20088;-68
2022/08/08 03:37:03;;;;;;;4.13;1.48;;;;;;;21.39;75.66;100591.81;5030725;28;20028;-70
2022/08/08 03:39:29;;;;;;;2.58;1.42;;;;;;;21.37;76.03;100595.69;5029554;28;20025;-69
2022/08/08 03:41:55;;;;;;;1.48;1.25;;;;;;;21.28;76.45;100589.81;5030917;28;20037;-72
2022/08/08 03:44:20;;;;;;;3.60;1.15;;;;;;;21.24;76.14;100598.44;5030577;28;20544;-69
2022/08/08 03:46:47;;;;;;;1.50;1.13;;;;;;;21.20;77.06;100605.97;5030786;28;20033;-69
2022/08/08 03:49:21;;;;;;;4.03;1.33;;;;;;;21.22;76.44;100603.13;5029204;28;20036;-68
2022/08/08 03:51:51;;;;;;;1.70;1.58;;;;;;;21.20;77.13;100604.13;5029564;28;20040;-69
2022/08/08 03:54:16;;;;;;;1.42;1.33;;;;;;;21.23;77.06;100607.41;5029925;28;20025;-70
2022/08/08 03:56:42;;;;;;;4.72;1.73;;;;;;;21.21;77.05;100604.97;5030441;28;20029;-67
2022/08/08 03:59:08;;;;;;;1.75;1.13;;;;;;;21.20;76.50;100611.25;5030751;28;20059;-69
2022/08/08 04:01:35;;;;;;;1.98;1.27;;;;;;;21.21;76.48;100618.22;5029328;28;20031;-67
2022/08/08 04:04:01;;;;;;;3.58;1.70;;;;;;;21.19;76.64;100612.28;5030020;28;20218;-66
2022/08/08 04:06:27;;;;;;;1.80;1.30;;;;;;;21.17;76.68;100617.78;5030179;28;20040;-70
2022/08/08 04:08:53;;;;;;;2.40;1.42;;;;;;;21.16;77.00;100618.00;5030308;28;20026;-69
2022/08/08 04:11:18;;;;;;;3.80;1.90;;;;;;;21.16;76.87;100610.88;5013083;28;20568;-66
2022/08/08 04:13:44;;;;;;;1.30;1.08;;;;;;;21.14;77.02;100615.56;5010499;28;20033;-70
2022/08/08 04:16:09;;;;;;;1.73;1.60;;;;;;;21.11;77.48;100610.69;5010500;28;20026;-68
2022/08/08 04:18:35;;;;;;;3.28;1.67;;;;;;;21.13;77.34;100607.81;5010076;28;20109;-67
2022/08/08 04:21:00;;;;;;;2.88;1.20;;;;;;;21.18;76.89;100610.66;5024586;28;20041;-68
2022/08/08 04:23:25;;;;;;;1.65;1.55;;;;;;;21.20;76.85;100611.25;5029782;28;20068;-68
2022/08/08 04:25:51;;;;;;;4.78;1.33;;;;;;;21.25;77.30;100614.13;5028390;28;20109;-69
2022/08/08 04:28:16;;;;;;;2.05;1.10;;;;;;;21.29;74.38;100606.53;5027436;28;20033;-68
2022/08/08 04:30:42;;;;;;;1.50;1.33;;;;;;;21.90;71.49;100603.31;5008873;28;20494;-70
2022/08/08 04:33:08;;;;;;;3.08;1.20;;;;;;;22.39;69.70;100608.66;5009713;28;20092;-69
2022/08/08 04:35:33;;;;;;;3.08;1.42;;;;;;;22.42;71.26;100612.72;5009023;28;20044;-70
2022/08/08 04:37:59;;;;;;;1.75;1.10;;;;;;;22.31;68.09;100616.06;5009773;28;20030;-67
2022/08/08 04:40:24;;;;;;;2.40;1.10;;;;;;;22.74;67.75;100614.22;5009158;28;20034;-66
2022/08/08 04:42:50;;;;;;;2.22;1.48;;;;;;;22.68;68.93;100616.97;5009653;28;20041;-70
2022/08/08 04:45:16;;;;;;;2.97;1.35;;;;;;;22.50;71.38;100617.75;5008924;28;20436;-67
2022/08/08 04:47:42;;;;;;;3.13;1.55;;;;;;;22.30;72.37;100623.22;5009399;28;20029;-70
2022/08/08 04:50:08;;;;;;;1.27;0.95;;;;;;;22.24;72.54;100632.06;5008826;28;20042;-72
2022/08/08 04:52:33;;;;;;;3.20;1.77;;;;;;;22.20;72.74;100630.88;5010030;28;20236;-69
2022/08/08 04:54:59;;;;;;;2.42;1.80;;;;;;;22.17;73.51;100626.81;5008157;28;20671;-68
2022/08/08 04:57:24;;;;;;;3.72;2.03;;;;;;;22.18;74.04;100635.59;5009486;28;20049;-70
2022/08/08 04:59:50;;;;;;;3.28;1.27;;;;;;;22.25;74.02;100639.00;5009794;28;20065;-66
2022/08/08 05:02:16;;;;;;;2.72;0.98;;;;;;;22.34;74.24;100647.50;5008223;28;20386;-72
2022/08/08 05:04:41;;;;;;;2.13;1.65;;;;;;;22.44;74.52;100647.81;5009302;28;20030;-69
2022/08/08 05:07:07;;;;;;;2.78;1.83;;;;;;;22.51;74.32;100643.28;5009552;28;20068;-71
2022/08/08 05:09:33;;;;;;;3.00;0.93;;;;;;;22.57;73.84;100653.03;5007673;28;20462;-70
2022/08/08 05:12:00;;;;;;;1.98;1.45;;;;;;;22.68;73.53;100641.69;4999965;28;20035;-68
2022/08/08 05:14:26;;;;;;;3.83;1.60;;;;;;;22.77;72.92;100645.66;4984193;28;20121;-67
2022/08/08 05:16:51;;;;;;;2.90;1.48;;;;;;;22.79;74.29;100643.63;4989584;28;20164;-67
2022/08/08 05:19:17;;;;;;;2.95;1.45;;;;;;;22.89;73.94;100639.66;4989590;28;20080;-71
2022/08/08 05:21:43;;;;;;;4.22;1.20;;;;;;;22.93;73.32;100646.16;5002862;28;20512;-68
2022/08/08 05:24:10;;;;;;;1.58;0.98;;;;;;;22.95;72.22;100649.41;5009051;28;20038;-65
2022/08/08 05:26:36;;;;;;;2.55;1.30;;;;;;;22.92;72.59;100647.19;5008213;28;20038;-71
2022/08/08 05:29:07;;;;;;;3.53;1.80;;;;;;;22.87;73.91;100645.19;5022181;28;20071;-68
2022/08/08 05:31:34;;;;;;;2.17;1.33;;;;;;;22.82;74.78;100648.50;5047212;28;20032;-65
2022/08/08 05:34:01;;;;;;;1.92;1.55;;;;;;;22.83;75.34;100650.13;5048558;28;20530;-70
2022/08/08 05:36:29;;;;;;;6.68;1.65;;;;;;;22.84;76.27;100657.06;5047663;28;20028;-68
2022/08/08 05:38:57;;;;;;;2.88;1.48;;;;;;;22.82;77.27;100661.78;5048532;28;20056;-71
2022/08/08 05:41:24;;;;;;;4.20;1.60;;;;;;;22.92;76.26;100663.13;5029519;28;20573;-70
2022/08/08 05:44:00;;;;;;;1.95;1.67;;;;;;;23.00;75.77;100670.81;5048204;28;20029;-70
2022/08/08 05:46:26;;;;;;;4.22;1.98;;;;;;;23.06;74.31;100661.94;5047170;28;20087;-69
2022/08/08 05:48:53;;;;;;;3.38;2.15;;;;;;;23.14;73.98;100654.50;5048860;28;20041;-66
2022/08/08 05:51:20;;;;;;;1.67;1.58;;;;;;;23.30;72.72;100658.38;5048659;28;20033;-67
2022/08/08 05:53:46;;;;;;;2.55;1.75;;;;;;;23.53;70.42;100659.53;5048639;28;20075;-69
2022/08/08 05:56:13;;;;;;;2.90;1.02;;;;;;;23.75;67.31;100653.50;5043580;28;20037;-68
2022/08/08 05:58:43;;;;;;;1.70;1.45;;;;;;;23.93;67.06;100660.63;5043642;28;20025;-68
2022/08/08 06:01:11;;;;;;;1.50;1.00;;;;;;;24.13;66.87;100661.13;5028649;28;20025;-68
2022/08/08 06:03:41;;;;;;;1.23;0.90;;;;;;;24.23;66.38;100657.09;5028606;28;20087;-68
2022/08/08 06:06:08;;;;;;;1.80;0.90;;;;;;;24.31;66.24;100664.78;5033349;28;20033;-67
2022/08/08 06:08:50;;;;;;;2.38;1.38;;;;;;;24.42;65.65;100669.31;5013888;28;20029;-67
2022/08/08 06:11:16;;;;;;;3.15;1.17;;;;;;;24.53;65.49;100671.16;5047101;28;20063;-67
2022/08/08 06:13:44;;;;;;;3.15;1.02;;;;;;;24.70;65.94;100674.75;5048995;28;20434;-67
2022/08/08 06:16:11;;;;;;;2.47;0.90;;;;;;;24.78;65.03;100677.06;5051479;28;20166;-67
2022/08/08 06:18:40;;;;;;;2.22;1.00;;;;;;;24.80;64.42;100677.63;5052249;28;20035;-67
2022/08/08 06:21:07;;;;;;;2.67;1.15;;;;;;;24.91;64.12;100677.88;5052512;28;20104;-68
2022/08/08 06:23:33;;;;;;;2.33;1.48;;;;;;;25.02;64.08;100672.56;5042723;28;20034;-67
2022/08/08 06:26:03;;;;;;;1.30;1.08;;;;;;;25.09;62.56;100670.53;5035333;28;20380;-67
2022/08/08 06:28:36;;;;;;;3.78;1.13;;;;;;;25.19;62.08;100677.94;5052041;28;20183;-68
2022/08/08 06:31:05;;;;;;;1.65;1.00;;;;;;;25.26;62.08;100680.50;5052680;28;20031;-66
2022/08/08 06:33:50;;;;;;;2.55;1.27;;;;;;;25.29;60.89;100683.50;5052312;28;20087;-67
2022/08/08 06:36:41;;;;;;;1.92;1.17;;;;;;;25.37;61.02;100680.47;5033123;28;20037;-67
2022/08/08 06:39:10;;;;;;;1.40;1.13;;;;;;;25.50;61.67;100681.25;5051826;28;20033;-66
2022/08/08 06:42:01;;;;;;;2.55;1.35;;;;;;;25.53;60.82;100683.41;5050861;28;20051;-67
2022/08/08 06:44:28;;;;;;;1.08;0.77;;;;;;;25.57;58.26;100689.88;5044649;28;20041;-67
2022/08/08 06:46:54;;;;;;;7.25;0.90;;;;;;;25.52;56.68;100690.59;5049748;28;20044;-66
2022/08/08 06:49:20;;;;;;;2.25;0.77;;;;;;;25.50;56.22;100691.91;5042566;28;20029;-67
2022/08/08 06:51:46;;;;;;;3.55;1.02;;;;;;;25.51;55.05;100691.66;5037096;28;20044;-67
2022/08/08 06:54:12;;;;;;;2.35;0.55;;;;;;;25.58;54.87;100694.19;5049865;28;20460;-66
2022/08/08 06:56:38;;;;;;;3.75;1.15;;;;;;;25.61;53.40;100701.72;5032692;28;20062;-66
2022/08/08 06:59:04;;;;;;;1.20;0.80;;;;;;;25.67;53.88;100700.78;5047683;28;20128;-66
2022/08/08 07:01:37;;;;;;;1.30;0.68;;;;;;;25.72;53.50;100693.69;5050504;28;20075;-65
2022/08/08 07:04:18;;;;;;;1.73;0.60;;;;;;;25.89;53.45;100690.25;5050551;28;20083;-65
2022/08/08 07:06:53;;;;;;;2.17;1.30;;;;;;;25.98;53.33;100696.84;5033456;28;20451;-66
2022/08/08 07:09:20;;;;;;;4.40;1.50;;;;;;;26.11;54.72;100691.97;5033196;28;20120;-66
2022/08/08 07:11:51;;;;;;;2.30;0.60;;;;;;;26.05;53.43;100692.94;5050286;28;20076;-65
2022/08/08 07:14:20;;;;;;;1.90;0.73;;;;;;;25.96;53.39;100688.25;5031638;28;20407;-65
2022/08/08 07:16:51;;;;;;;7.28;1.10;;;;;;;25.99;54.23;100693.94;5050758;28;20021;-65
2022/08/08 07:19:29;;;;;;;5.85;1.05;;;;;;;26.10;51.92;100689.53;5043782;28;20041;-65
2022/08/08 07:21:59;;;;;;;2.55;0.95;;;;;;;26.18;53.01;100697.16;5047628;28;20029;-67
2022/08/08 07:24:33;;;;;;;1.45;0.80;;;;;;;26.26;52.69;100690.63;5033721;28;20488;-65
2022/08/08 07:26:59;;;;;;;3.67;0.90;;;;;;;26.27;51.54;100687.69;5049664;28;20230;-65
2022/08/08 07:29:26;;;;;;;3.45;0.70;;;;;;;26.25;52.31;100699.69;5032585;28;20053;-66
2022/08/08 07:31:51;;;;;;;3.05;0.80;;;;;;;26.30;52.50;100699.75;5049846;28;20434;-64
2022/08/08 07:34:17;;;;;;;1.50;0.90;;;;;;;26.30;52.39;100689.09;5051063;28;20525;-65
2022/08/08 07:36:47;;;;;;;3.20;1.10;;;;;;;26.50;51.27;100694.75;5050170;28;20519;-64
2022/08/08 07:39:18;;;;;;;2.83;0.88;;;;;;;26.53;50.61;100686.25;5049011;28;20047;-66
2022/08/08 07:41:46;;;;;;;3.95;1.20;;;;;;;26.59;50.24;100703.97;5048232;28;20480;-64
2022/08/08 07:44:13;;;;;;;2.22;0.98;;;;;;;26.56;51.24;100685.75;5050932;28;20036;-64
2022/08/08 07:46:39;;;;;;;2.15;0.52;;;;;;;26.64;50.91;100698.72;5050520;28;20029;-65
2022/08/08 07:49:06;;;;;;;2.58;0.77;;;;;;;26.68;51.18;100697.19;5047523;28;20114;-65
2022/08/08 07:51:32;;;;;;;1.75;0.90;;;;;;;26.84;50.41;100697.41;5049663;28;20033;-66
2022/08/08 07:54:11;;;;;;;2.35;0.60;;;;;;;26.89;50.41;100694.81;5021489;28;20027;-66
2022/08/08 07:56:51;;;;;;;1.42;1.10;;;;;;;26.89;48.91;100697.47;5023636;28;20028;-67
2022/08/08 07:59:18;;;;;;;3.40;0.85;;;;;;;27.05;49.83;100710.81;5032082;28;20121;-66
2022/08/08 08:01:56;;;;;;;2.13;0.73;;;;;;;26.88;48.48;100695.84;5050667;28;20016;-68
2022/08/08 08:04:27;;;;;;;1.42;0.80;;;;;;;27.06;49.67;100704.41;5049477;28;20033;-67
2022/08/08 08:06:57;;;;;;;2.15;1.10;;;;;;;26.98;49.40;100707.50;5050570;28;20056;-65
2022/08/08 08:09:30;;;;;;;1.95;0.80;;;;;;;27.05;48.93;100699.31;5049958;28;20040;-66
2022/08/08 08:11:58;;;;;;;2.95;0.88;;;;;;;26.97;49.79;100705.06;5037129;28;20420;-65
2022/08/08 08:14:41;;;;;;;4.07;1.02;;;;;;;26.90;48.89;100701.78;5049249;28;20441;-64
2022/08/08 08:17:12;;;;;;;4.43;1.02;;;;;;;27.01;48.28;100703.53;5038512;28;20037;-67
2022/08/08 08:19:38;;;;;;;4.90;0.95;;;;;;;27.16;49.24;100703.75;5049222;28;20029;-65
2022/08/08 08:22:04;;;;;;;3.10;1.08;;;;;;;27.31;48.96;100708.47;5031910;28;20032;-66
2022/08/08 08:24:29;;;;;;;2.40;1.00;;;;;;;27.34;48.40;100706.13;5055104;28;20380;-65
2022/08/08 08:26:55;;;;;;;2.10;1.13;;;;;;;27.42;48.99;100711.00;5058260;28;20094;-67
2022/08/08 08:29:20;;;;;;;5.20;1.55;;;;;;;27.49;48.62;100710.00;5049533;28;20048;-66
2022/08/08 08:31:47;;;;;;;1.10;1.00;;;;;;;27.58;49.66;100708.50;5037038;28;20033;-65
2022/08/08 08:34:12;;;;;;;3.38;0.90;;;;;;;27.59;48.73;100713.66;5041340;28;20025;-67
2022/08/08 08:36:39;;;;;;;1.75;1.02;;;;;;;27.52;49.15;100718.34;5048494;28;20032;-68
2022/08/08 08:39:05;;;;;;;2.33;1.00;;;;;;;27.62;48.72;100707.78;5048494;28;20029;-65
2022/08/08 08:41:32;;;;;;;2.80;0.95;;;;;;;27.67;48.80;100713.19;5050179;28;20033;-65
2022/08/08 08:43:58;;;;;;;2.25;0.80;;;;;;;27.53;48.58;100706.56;5049132;28;20052;-66
2022/08/08 08:46:24;;;;;;;1.75;0.88;;;;;;;27.63;49.01;100711.28;5048731;28;20509;-65
2022/08/08 08:48:51;;;;;;;1.85;0.93;;;;;;;27.84;47.30;100710.44;5053223;28;20037;-65
2022/08/08 08:51:17;;;;;;;2.22;1.10;;;;;;;27.74;47.76;100707.66;5045653;28;20041;-67
2022/08/08 08:53:51;;;;;;;2.08;1.52;;;;;;;27.85;47.92;100709.38;5043087;28;20044;-65
2022/08/08 08:56:19;;;;;;;4.50;1.00;;;;;;;27.76;48.07;100708.22;5047025;28;20074;-69
2022/08/08 08:58:47;;;;;;;2.83;1.17;;;;;;;27.79;47.34;100715.75;5045040;28;20103;-69
2022/08/08 09:01:17;;;;;;;3.90;1.05;;;;;;;27.75;48.54;100702.03;5044898;28;20041;-68
2022/08/08 09:03:46;;;;;;;1.20;0.75;;;;;;;27.74;47.68;100708.47;5049564;28;20025;-67
2022/08/08 09:06:20;;;;;;;5.47;1.15;;;;;;;27.70;47.73;100711.88;5043687;28;20121;-67
2022/08/08 09:08:51;;;;;;;1.42;1.33;;;;;;;27.86;46.89;100712.88;5047034;28;20037;-67
2022/08/08 09:11:17;;;;;;;3.95;1.20;;;;;;;27.67;47.35;100715.06;5059265;28;20064;-66
2022/08/08 09:13:44;;;;;;;2.80;1.17;;;;;;;27.85;47.59;100708.56;5059896;28;20376;-67
2022/08/08 09:16:09;;;;;;;2.08;1.20;;;;;;;27.91;48.37;100707.53;5038323;28;20528;-68
2022/08/08 09:18:35;;;;;;;1.80;1.13;;;;;;;28.00;48.82;100716.72;5046119;28;20039;-66
2022/08/08 09:21:01;;;;;;;2.38;1.17;;;;;;;28.12;48.54;100727.28;5019167;28;20047;-69
2022/08/08 09:23:28;;;;;;;4.97;1.60;;;;;;;27.93;47.58;100724.97;5046628;28;20029;-67
2022/08/08 09:26:00;;;;;;;3.05;1.08;;;;;;;27.99;47.86;100718.59;5039583;28;20036;-68
2022/08/08 09:28:27;;;;;;;1.40;1.10;;;;;;;27.92;47.36;100727.88;5062038;28;20130;-67
2022/08/08 09:31:00;;;;;;;1.90;1.38;;;;;;;28.05;48.71;100732.84;5042777;28;20116;-67
2022/08/08 09:33:28;;;;;;;1.95;1.02;;;;;;;28.14;48.46;100725.16;5042494;28;20470;-67
2022/08/08 09:35:54;;;;;;;1.50;0.80;;;;;;;28.17;48.11;100716.63;5044813;28;20030;-68
2022/08/08 09:38:30;;;;;;;4.70;1.38;;;;;;;28.25;47.19;100717.00;5042786;28;20126;-65
2022/08/08 09:41:04;;;;;;;3.90;1.30;;;;;;;28.17;46.31;100716.63;5038272;28;20025;-66
2022/08/08 09:43:34;;;;;;;3.47;1.20;;;;;;;28.13;47.29;100715.50;5046022;28;20029;-68
2022/08/08 09:46:01;;;;;;;3.90;0.88;;;;;;;28.06;47.30;100708.50;5040406;28;20083;-68
2022/08/08 09:48:31;;;;;;;2.97;1.10;;;;;;;28.25;47.28;100716.19;5038107;28;20027;-67
2022/08/08 09:50:58;;;;;;;7.53;1.70;;;;;;;28.15;48.17;100708.84;5038319;28;20030;-70
2022/08/08 09:53:30;;;;;;;1.50;1.10;;;;;;;28.24;46.38;100719.94;5041803;28;20111;-67
2022/08/08 09:55:56;;;;;;;1.65;1.27;;;;;;;28.22;47.77;100716.69;5041343;28;20043;-68
2022/08/08 09:58:27;;;;;;;1.92;1.10;;;;;;;28.16;47.65;100713.13;5039197;28;20598;-66
2022/08/08 10:00:54;;;;;;;1.05;0.95;;;;;;;28.17;47.25;100703.22;5045315;28;20455;-67
2022/08/08 10:03:23;;;;;;;2.08;1.15;;;;;;;28.27;46.59;100698.00;5028836;28;20033;-68
2022/08/08 10:05:49;;;;;;;1.65;1.15;;;;;;;28.30;47.54;100681.41;5044427;28;20402;-68
2022/08/08 10:08:14;;;;;;;3.40;1.92;;;;;;;28.44;47.09;100697.84;5041075;28;20028;-68
2022/08/08 10:10:42;;;;;;;6.20;2.10;;;;;;;28.54;47.46;100692.56;5026881;28;20032;-68
2022/08/08 10:13:25;;;;;;;2.35;1.77;;;;;;;28.76;47.51;100695.91;5044461;28;20052;-67
2022/08/08 10:15:52;;;;;;;1.85;1.60;;;;;;;28.91;48.22;100692.53;5043509;28;20037;-69
2022/08/08 10:18:24;;;;;;;4.00;2.30;;;;;;;28.85;48.27;100697.06;5039208;28;20041;-68
2022/08/08 10:20:53;;;;;;;2.30;1.40;;;;;;;28.64;46.96;100701.47;5044089;28;20032;-68
2022/08/08 10:23:33;;;;;;;4.00;1.95;;;;;;;28.56;47.49;100674.34;5047717;28;20040;-68
2022/08/08 10:25:58;;;;;;;2.28;1.20;;;;;;;28.58;48.80;100686.41;5046515;28;20408;-68
2022/08/08 10:28:25;;;;;;;3.35;2.38;;;;;;;28.70;48.40;100681.69;5042021;28;20053;-67
2022/08/08 10:30:57;;;;;;;2.67;2.15;;;;;;;28.86;48.04;100679.91;5041911;28;20110;-67
2022/08/08 10:33:33;;;;;;;2.25;2.05;;;;;;;28.88;47.70;100679.63;5047810;28;20056;-69
2022/08/08 10:36:03;;;;;;;5.13;2.65;;;;;;;28.97;48.27;100684.25;5047059;28;20163;-68
2022/08/08 10:38:31;;;;;;;3.25;2.83;;;;;;;29.03;49.44;100675.16;5041996;28;20116;-68
2022/08/08 10:41:02;;;;;;;5.35;2.40;;;;;;;29.08;49.01;100690.47;5044646;28;20037;-67
2022/08/08 10:43:38;;;;;;;3.22;2.92;;;;;;;28.97;47.59;100684.25;5044888;28;20029;-68
2022/08/08 10:46:24;;;;;;;3.03;1.65;;;;;;;28.73;47.46;100666.94;5042929;28;20025;-67
2022/08/08 10:48:55;;;;;;;3.05;2.10;;;;;;;28.79;48.31;100665.91;5037600;28;20557;-67
2022/08/08 10:51:22;;;;;;;2.05;1.95;;;;;;;29.07;48.07;100670.09;5048084;28;20136;-67
2022/08/08 10:53:49;;;;;;;3.20;2.90;;;;;;;29.17;47.68;100680.06;5040749;28;20370;-67
2022/08/08 10:56:16;;;;;;;2.60;2.45;;;;;;;29.15;47.50;100672.25;5040911;28;20071;-66
2022/08/08 10:58:42;;;;;;;2.45;2.33;;;;;;;29.15;47.95;100676.81;5047945;28;20032;-67
2022/08/08 11:01:08;;;;;;;4.18;2.40;;;;;;;29.19;49.15;100668.00;5047018;28;20088;-67
2022/08/08 11:03:42;;;;;;;3.25;2.83;;;;;;;29.09;47.80;100676.00;5051462;28;20029;-68
2022/08/08 11:06:08;;;;;;;9.60;3.08;;;;;;;28.94;47.90;100681.28;5049004;28;20029;-69
2022/08/08 11:08:35;;;;;;;4.97;2.10;;;;;;;28.76;45.92;100668.31;5048969;28;20056;-66
2022/08/08 11:11:05;;;;;;;6.00;2.00;;;;;;;28.67;45.62;100676.03;5049105;28;20029;-67
2022/08/08 11:13:40;;;;;;;13.82;3.33;;;;;;;28.50;47.85;100660.09;5045203;28;20040;-66
2022/08/08 11:16:07;;;;;;;7.93;3.30;;;;;;;28.66;47.58;100667.19;5042455;28;20148;-68
2022/08/08 11:18:35;;;;;;;4.25;1.95;;;;;;;28.94;46.25;100675.91;5049827;28;20037;-68
2022/08/08 11:21:03;;;;;;;4.50;1.35;;;;;;;28.77;46.90;100669.91;5046888;28;20067;-67
2022/08/08 11:23:33;;;;;;;5.22;2.25;;;;;;;28.83;47.48;100660.88;5048479;28;20025;-68
2022/08/08 11:26:04;;;;;;;5.38;3.17;;;;;;;29.01;47.28;100666.56;5042461;28;20376;-68
2022/08/08 11:28:33;;;;;;;4.13;2.92;;;;;;;29.06;47.05;100663.09;5043467;28;20080;-68
2022/08/08 11:31:01;;;;;;;5.47;3.10;;;;;;;29.12;47.91;100671.97;5043424;28;20025;-67
2022/08/08 11:33:29;;;;;;;3.45;3.17;;;;;;;29.14;47.10;100681.38;5044264;28;20025;-68
2022/08/08 11:35:55;;;;;;;4.95;2.10;;;;;;;29.10;45.95;100677.59;5039197;28;20039;-69
2022/08/08 11:38:25;;;;;;;3.00;2.80;;;;;;;29.05;48.29;100661.50;5044671;28;20485;-67
2022/08/08 11:40:52;;;;;;;3.72;2.80;;;;;;;29.12;48.53;100629.06;5038302;28;20056;-66
2022/08/08 11:43:19;;;;;;;3.28;2.95;;;;;;;29.21;49.31;100639.03;5045127;28;20043;-67
2022/08/08 11:45:45;;;;;;;8.60;3.40;;;;;;;29.18;48.29;100661.00;5045704;28;20466;-67
2022/08/08 11:48:13;;;;;;;2.70;2.50;;;;;;;29.27;46.36;100670.19;5040072;28;20032;-68
2022/08/08 11:50:39;;;;;;;4.88;3.40;;;;;;;29.18;46.53;100663.69;5045232;28;20473;-66
2022/08/08 11:53:07;;;;;;;7.13;3.67;;;;;;;29.01;47.01;100655.84;5044243;28;20028;-69
2022/08/08 11:55:36;;;;;;;5.43;3.20;;;;;;;28.91;47.06;100649.63;5038727;28;20036;-66
2022/08/08 11:58:05;;;;;;;4.78;3.78;;;;;;;28.79;49.69;100636.41;5044045;28;20276;-67